Altamont, Pennsylvania
Current Conditions -  °F | °C
As of 2:55 PM on Wednesday 28 Jan 2015 (Local Time) from KHZL Reporting Station
Clear Clear  
Wind Chill: -9°   Ceiling: Unl
Heat Index: -2°   Visibility: 10mi
Dew Point: -17°   Wind: 16mph
Humidity: 31%   Direction: 320°NW
Pressure: 30.1"   Gusts: 26mph
Location:  40.7811°N, 76.2523°W
Report Text: KHZL 281955Z AUTO 32014G23KT 10SM CLR M02/M17 A3010 RMK AO2
Loading
Personal Weather Stations






























Interactive Weather Map New forecast layout! Learn more

10-Day Weather Forecast

Advertisements
Track Severe Weather on mobile